»·PEaware :: N209AM KLAS-KPSP

N209AM :: KLAS-KPSP

FLIGHT INFORMATION

Flight Status: Arrived
Operator: Privately registered:
United States
More flights under this callsign
Pilot: Austin M. (5128)
Aircraft: MCDONNELL-DOUGLAS DC-6/B LIFTMASTER
(DC6)
More flights by this aircraft type
Origin: KLAS McCarran Intl
United States
Destination: KPSP Palm Springs Intl
United States
More flights between these airports :: More routes between these airports
Route: +GFS V514 TNP PSP
File this flight plan on PilotEdge
Remarks:
Altitude:
(Current/Filed)
120ft
Speed:
(Current/Filed)
220kts
Departed: 28-Feb-17 03:15 PM
Arrived: 28-Feb-17 04:13 PM
Distance/Time
Traveled:
151nm/0:58
Distance/Time
To Go:
Arrived

Flight Plot

Page will automatically refresh every two minutes.

Flight plan parsing failed; only flown route is shown


Map Options




Map Legend


Flown Route
Filed Route
Departure Airport
Arrival Airport
Navaid (VOR, NDB)
Fix

Horizontal Profiles

Position Reports

Time Latitude Longitude Heading Altitude Ground
Speed
28-Feb-17 14:54 36.099186 -115.162419 177 2150ft 0kts
28-Feb-17 14:55 36.099186 -115.162419 177 2150ft 0kts
28-Feb-17 14:56 36.099186 -115.162419 177 2150ft 0kts
28-Feb-17 14:57 36.099186 -115.162419 177 2150ft 0kts
28-Feb-17 14:58 36.099186 -115.162419 177 2150ft 0kts
28-Feb-17 14:59 36.099186 -115.162419 177 2150ft 0kts
28-Feb-17 15:00 36.099186 -115.162419 177 2150ft 0kts
28-Feb-17 15:01 36.099186 -115.162419 177 2150ft 0kts
28-Feb-17 15:02 36.099186 -115.162419 177 2150ft 0kts
28-Feb-17 15:03 36.099186 -115.162419 177 2150ft 0kts
28-Feb-17 15:04 36.099186 -115.162419 177 2150ft 0kts
28-Feb-17 15:05 36.099186 -115.162419 177 2150ft 0kts
28-Feb-17 15:06 36.099186 -115.162419 177 2150ft 0kts
28-Feb-17 15:07 36.099186 -115.162419 177 2150ft 0kts
28-Feb-17 15:08 36.099186 -115.162419 177 2150ft 0kts
28-Feb-17 15:09 36.099150 -115.159650 56 2150ft 31kts
28-Feb-17 15:10 36.099848 -115.157799 86 2150ft 0kts
28-Feb-17 15:11 36.099848 -115.157799 86 2150ft 0kts
28-Feb-17 15:12 36.099848 -115.157799 86 2150ft 0kts
28-Feb-17 15:13 36.099856 -115.157643 87 2150ft 0kts
28-Feb-17 15:14 36.099238 -115.156690 194 2150ft 8kts
28-Feb-17 15:15 36.099094 -115.156743 198 2150ft 0kts
28-Feb-17 15:16 36.076930 -115.169124 206 2429ft 147kts
28-Feb-17 15:17 36.033545 -115.185562 182 3500ft 183kts
28-Feb-17 15:18 35.984521 -115.183549 178 4569ft 171kts
28-Feb-17 15:19 35.936900 -115.181384 178 5388ft 173kts
28-Feb-17 15:20 35.889247 -115.178924 178 6174ft 176kts
28-Feb-17 15:21 35.840109 -115.176041 178 6965ft 179kts
28-Feb-17 15:22 35.790001 -115.172701 178 7761ft 182kts
28-Feb-17 15:23 35.739418 -115.168889 178 8556ft 185kts
28-Feb-17 15:24 35.688107 -115.164677 178 9348ft 188kts
28-Feb-17 15:25 35.635747 -115.160158 178 10145ft 191kts
28-Feb-17 15:26 35.582663 -115.155730 182 10941ft 192kts
28-Feb-17 15:27 35.528897 -115.153201 185 11727ft 194kts
28-Feb-17 15:28 35.472894 -115.157465 187 12023ft 220kts
28-Feb-17 15:29 35.408303 -115.161451 186 12019ft 245kts
28-Feb-17 15:30 35.338703 -115.165313 185 12014ft 259kts
28-Feb-17 15:31 35.265737 -115.169206 185 12007ft 266kts
28-Feb-17 15:32 35.191436 -115.173116 185 11999ft 269kts
28-Feb-17 15:33 35.117896 -115.182970 203 12001ft 265kts
28-Feb-17 15:34 35.048457 -115.213102 203 12007ft 266kts
28-Feb-17 15:35 34.979037 -115.243550 204 12008ft 265kts
28-Feb-17 15:36 34.910092 -115.273867 204 12008ft 263kts
28-Feb-17 15:37 34.842154 -115.303730 204 12004ft 260kts
28-Feb-17 15:38 34.774812 -115.333295 204 12004ft 259kts
28-Feb-17 15:39 34.707284 -115.362890 204 12006ft 258kts
28-Feb-17 15:40 34.640400 -115.392150 204 12032ft 257kts
28-Feb-17 15:41 34.573171 -115.421510 204 12068ft 257kts
28-Feb-17 15:42 34.506300 -115.450669 204 12087ft 257kts
28-Feb-17 15:43 34.439085 -115.479926 204 12087ft 258kts
28-Feb-17 15:44 34.371374 -115.509351 204 12006ft 260kts
28-Feb-17 15:45 34.309248 -115.548878 227 12006ft 250kts
28-Feb-17 15:46 34.258410 -115.605366 227 12005ft 249kts
28-Feb-17 15:47 34.209218 -115.660530 227 12008ft 249kts
28-Feb-17 15:48 34.159969 -115.716382 227 12009ft 250kts
28-Feb-17 15:49 34.111372 -115.775024 247 11986ft 244kts
28-Feb-17 15:50 34.084203 -115.848209 249 12008ft 243kts
28-Feb-17 15:51 34.057103 -115.921784 249 11998ft 243kts
28-Feb-17 15:52 34.029929 -115.995755 249 11984ft 243kts
28-Feb-17 15:53 34.002705 -116.069898 249 11835ft 247kts
28-Feb-17 15:54 33.976043 -116.142374 250 11346ft 237kts
28-Feb-17 15:55 33.949860 -116.213368 250 10961ft 233kts
28-Feb-17 15:56 33.923638 -116.284497 250 10961ft 239kts
28-Feb-17 15:57 33.902317 -116.342512 251 10968ft 240kts
28-Feb-17 15:58 33.899429 -116.429210 272 10974ft 236kts
28-Feb-17 15:59 33.895462 -116.505299 243 10950ft 245kts
28-Feb-17 16:00 33.844280 -116.505240 126 10527ft 272kts
28-Feb-17 16:01 33.841088 -116.404533 84 9604ft 267kts
28-Feb-17 16:02 33.825979 -116.329797 112 8295ft 281kts
28-Feb-17 16:03 33.786858 -116.233976 120 7079ft 270kts
28-Feb-17 16:04 33.736309 -116.194729 170 6209ft 264kts
28-Feb-17 16:05 33.678248 -116.210222 216 6022ft 187kts
28-Feb-17 16:06 33.646701 -116.261262 254 5268ft 160kts
28-Feb-17 16:07 33.643538 -116.302092 278 4657ft 156kts
28-Feb-17 16:08 33.663292 -116.354673 312 3962ft 145kts
28-Feb-17 16:09 33.688719 -116.379041 324 3501ft 145kts
28-Feb-17 16:10 33.719825 -116.406639 323 2949ft 146kts
28-Feb-17 16:11 33.751767 -116.435892 322 2225ft 154kts
28-Feb-17 16:12 33.784442 -116.466090 322 1394ft 140kts
28-Feb-17 16:13 33.811209 -116.491219 322 762ft 115kts
28-Feb-17 16:14 33.828721 -116.507878 270 486ft 20kts

Navigation Log

Ident Type
Flight plan parsing failed, navigation log unavailable